sensor_id;sensor_type;location;lat;lon;timestamp;pressure;altitude;pressure_sealevel;temperature;humidity
29417;BME280;28421;51.030;4.006;2023-02-01T00:02:05;102279.84;;;6.34;85.54
29417;BME280;28421;51.030;4.006;2023-02-01T00:04:30;102291.28;;;6.49;85.02
29417;BME280;28421;51.030;4.006;2023-02-01T00:06:56;102315.38;;;6.73;83.53
29417;BME280;28421;51.030;4.006;2023-02-01T00:09:21;102252.09;;;6.37;83.27
29417;BME280;28421;51.030;4.006;2023-02-01T00:11:47;102301.47;;;6.81;82.57
29417;BME280;28421;51.030;4.006;2023-02-01T00:14:12;102279.72;;;6.61;82.07
29417;BME280;28421;51.030;4.006;2023-02-01T00:16:38;102298.19;;;6.64;81.58
29417;BME280;28421;51.030;4.006;2023-02-01T00:19:07;102267.13;;;6.38;81.13
29417;BME280;28421;51.030;4.006;2023-02-01T00:21:32;102269.91;;;6.49;80.70
29417;BME280;28421;51.030;4.006;2023-02-01T00:23:59;102300.03;;;6.64;79.80
29417;BME280;28421;51.030;4.006;2023-02-01T00:26:36;102283.00;;;6.65;79.33
29417;BME280;28421;51.030;4.006;2023-02-01T00:29:05;102274.19;;;6.76;78.65
29417;BME280;28421;51.030;4.006;2023-02-01T00:31:31;102254.81;;;6.61;78.04
29417;BME280;28421;51.030;4.006;2023-02-01T05:33:58;102277.00;;;4.94;77.40
29417;BME280;28421;51.030;4.006;2023-02-01T05:36:49;102290.47;;;5.05;77.17
29417;BME280;28421;51.030;4.006;2023-02-01T05:39:15;102284.94;;;5.08;77.44
29417;BME280;28421;51.030;4.006;2023-02-01T05:41:40;102239.78;;;4.92;77.15
29417;BME280;28421;51.030;4.006;2023-02-01T05:44:05;102273.44;;;5.08;77.26
29417;BME280;28421;51.030;4.006;2023-02-01T05:46:33;102262.53;;;4.98;77.08
29417;BME280;28421;51.030;4.006;2023-02-01T05:48:59;102249.25;;;4.84;77.25
29417;BME280;28421;51.030;4.006;2023-02-01T05:51:24;102246.56;;;4.84;77.09
29417;BME280;28421;51.030;4.006;2023-02-01T05:53:50;102277.06;;;5.07;76.79
29417;BME280;28421;51.030;4.006;2023-02-01T05:56:15;102249.66;;;4.78;77.33
29417;BME280;28421;51.030;4.006;2023-02-01T05:58:41;102268.25;;;4.92;77.24
29417;BME280;28421;51.030;4.006;2023-02-01T06:01:06;102291.50;;;4.90;77.10
29417;BME280;28421;51.030;4.006;2023-02-01T06:03:31;102273.88;;;4.87;77.43
29417;BME280;28421;51.030;4.006;2023-02-01T06:05:57;102273.41;;;4.81;77.65
29417;BME280;28421;51.030;4.006;2023-02-01T06:08:22;102287.63;;;4.81;77.54
29417;BME280;28421;51.030;4.006;2023-02-01T06:10:50;102291.81;;;4.85;77.63
29417;BME280;28421;51.030;4.006;2023-02-01T06:13:17;102288.53;;;4.94;77.71
29417;BME280;28421;51.030;4.006;2023-02-01T06:15:42;102267.19;;;4.94;77.29
29417;BME280;28421;51.030;4.006;2023-02-01T06:18:09;102301.50;;;5.13;76.75
29417;BME280;28421;51.030;4.006;2023-02-01T06:20:35;102302.34;;;5.14;76.99
29417;BME280;28421;51.030;4.006;2023-02-01T06:23:00;102295.16;;;5.02;77.01
29417;BME280;28421;51.030;4.006;2023-02-01T06:25:25;102279.25;;;5.00;76.85
29417;BME280;28421;51.030;4.006;2023-02-01T06:27:51;102298.41;;;4.92;77.62
29417;BME280;28421;51.030;4.006;2023-02-01T06:30:16;102226.09;;;3.87;79.54
29417;BME280;28421;51.030;4.006;2023-02-01T06:32:43;102310.16;;;4.76;79.33
29417;BME280;28421;51.030;4.006;2023-02-01T06:35:09;102310.53;;;4.84;78.93
29417;BME280;28421;51.030;4.006;2023-02-01T06:37:41;102281.38;;;4.54;79.20
29417;BME280;28421;51.030;4.006;2023-02-01T06:40:07;102305.38;;;4.81;78.89
29417;BME280;28421;51.030;4.006;2023-02-01T06:42:33;102245.13;;;4.51;78.59
29417;BME280;28421;51.030;4.006;2023-02-01T06:44:59;102306.00;;;4.71;78.69
29417;BME280;28421;51.030;4.006;2023-02-01T06:47:25;102251.25;;;4.39;79.49
29417;BME280;28421;51.030;4.006;2023-02-01T06:49:50;102303.03;;;4.76;79.67
29417;BME280;28421;51.030;4.006;2023-02-01T06:52:15;102292.47;;;4.74;78.81
29417;BME280;28421;51.030;4.006;2023-02-01T06:54:41;102285.75;;;4.55;79.62
29417;BME280;28421;51.030;4.006;2023-02-01T06:57:06;102300.28;;;4.78;79.14
29417;BME280;28421;51.030;4.006;2023-02-01T06:59:32;102251.72;;;4.31;79.62
29417;BME280;28421;51.030;4.006;2023-02-01T07:01:57;102310.56;;;4.69;79.65
29417;BME280;28421;51.030;4.006;2023-02-01T07:04:23;102258.69;;;4.48;78.89
29417;BME280;28421;51.030;4.006;2023-02-01T07:06:48;102296.28;;;4.70;79.00
29417;BME280;28421;51.030;4.006;2023-02-01T07:09:13;102270.03;;;4.64;78.80
29417;BME280;28421;51.030;4.006;2023-02-01T07:11:39;102298.09;;;4.70;78.97
29417;BME280;28421;51.030;4.006;2023-02-01T07:14:12;102265.84;;;4.19;80.51
29417;BME280;28421;51.030;4.006;2023-02-01T07:16:37;102320.56;;;4.66;80.30
29417;BME280;28421;51.030;4.006;2023-02-01T07:19:03;102297.00;;;4.45;79.99
29417;BME280;28421;51.030;4.006;2023-02-01T07:21:28;102294.16;;;4.48;79.55
29417;BME280;28421;51.030;4.006;2023-02-01T07:23:54;102328.06;;;4.73;79.64
29417;BME280;28421;51.030;4.006;2023-02-01T07:26:20;102314.38;;;4.51;79.83
29417;BME280;28421;51.030;4.006;2023-02-01T07:28:45;102300.69;;;4.57;79.53
29417;BME280;28421;51.030;4.006;2023-02-01T07:31:17;102257.72;;;4.35;79.04
29417;BME280;28421;51.030;4.006;2023-02-01T07:33:48;102313.06;;;4.58;79.06
29417;BME280;28421;51.030;4.006;2023-02-01T07:36:15;102337.88;;;4.73;79.14
29417;BME280;28421;51.030;4.006;2023-02-01T07:38:42;102335.09;;;4.74;79.32
29417;BME280;28421;51.030;4.006;2023-02-01T07:41:08;102341.47;;;4.72;79.44
29417;BME280;28421;51.030;4.006;2023-02-01T07:43:33;102290.34;;;4.53;79.19
29417;BME280;28421;51.030;4.006;2023-02-01T07:45:59;102284.53;;;4.46;79.25
29417;BME280;28421;51.030;4.006;2023-02-01T07:48:25;102335.59;;;4.67;79.35
29417;BME280;28421;51.030;4.006;2023-02-01T07:53:32;102299.25;;;4.66;79.16
29417;BME280;28421;51.030;4.006;2023-02-01T07:55:58;102341.84;;;4.94;79.14
29417;BME280;28421;51.030;4.006;2023-02-01T07:58:24;102302.78;;;4.66;79.03
29417;BME280;28421;51.030;4.006;2023-02-01T08:00:50;102334.50;;;4.84;79.14
29417;BME280;28421;51.030;4.006;2023-02-01T08:03:34;102347.75;;;4.85;79.27
29417;BME280;28421;51.030;4.006;2023-02-01T08:06:00;102309.22;;;4.77;79.05
29417;BME280;28421;51.030;4.006;2023-02-01T08:08:25;102331.91;;;4.96;79.01
29417;BME280;28421;51.030;4.006;2023-02-01T08:10:51;102325.19;;;4.91;78.70
29417;BME280;28421;51.030;4.006;2023-02-01T08:13:16;102321.13;;;5.12;78.74
29417;BME280;28421;51.030;4.006;2023-02-01T08:15:42;102323.13;;;5.09;78.31
29417;BME280;28421;51.030;4.006;2023-02-01T08:18:07;102285.94;;;4.93;78.12
29417;BME280;28421;51.030;4.006;2023-02-01T08:20:35;102340.13;;;5.20;78.02
29417;BME280;28421;51.030;4.006;2023-02-01T08:23:01;102310.88;;;5.06;77.61
29417;BME280;28421;51.030;4.006;2023-02-01T08:25:27;102334.38;;;5.27;77.80
29417;BME280;28421;51.030;4.006;2023-02-01T08:27:53;102367.31;;;5.40;77.57
29417;BME280;28421;51.030;4.006;2023-02-01T08:30:19;102313.91;;;5.00;78.08
29417;BME280;28421;51.030;4.006;2023-02-01T08:32:45;102343.22;;;5.14;77.76
29417;BME280;28421;51.030;4.006;2023-02-01T08:35:11;102368.84;;;5.30;77.88
29417;BME280;28421;51.030;4.006;2023-02-01T08:37:36;102360.78;;;5.31;77.93
29417;BME280;28421;51.030;4.006;2023-02-01T08:40:03;102357.56;;;5.39;77.52
29417;BME280;28421;51.030;4.006;2023-02-01T08:42:29;102349.41;;;5.55;77.10
29417;BME280;28421;51.030;4.006;2023-02-01T08:45:13;102368.78;;;5.71;76.88
29417;BME280;28421;51.030;4.006;2023-02-01T08:47:38;102326.91;;;5.59;76.71
29417;BME280;28421;51.030;4.006;2023-02-01T08:50:04;102326.19;;;5.69;76.49
29417;BME280;28421;51.030;4.006;2023-02-01T08:52:30;102328.88;;;5.82;75.99
29417;BME280;28421;51.030;4.006;2023-02-01T08:54:55;102320.09;;;5.80;75.92
29417;BME280;28421;51.030;4.006;2023-02-01T08:57:21;102301.09;;;5.72;75.80
29417;BME280;28421;51.030;4.006;2023-02-01T08:59:46;102312.78;;;5.96;75.94
29417;BME280;28421;51.030;4.006;2023-02-01T09:02:16;102345.25;;;6.29;75.16
29417;BME280;28421;51.030;4.006;2023-02-01T09:04:42;102318.03;;;6.23;74.96
29417;BME280;28421;51.030;4.006;2023-02-01T09:07:10;102317.06;;;6.12;75.06
29417;BME280;28421;51.030;4.006;2023-02-01T09:09:36;102283.97;;;6.14;74.64
29417;BME280;28421;51.030;4.006;2023-02-01T09:12:03;102291.41;;;6.22;74.34
29417;BME280;28421;51.030;4.006;2023-02-01T09:14:29;102335.50;;;6.66;74.35
29417;BME280;28421;51.030;4.006;2023-02-01T09:16:54;102268.75;;;6.40;74.24
29417;BME280;28421;51.030;4.006;2023-02-01T09:19:20;102271.31;;;6.42;73.58
29417;BME280;28421;51.030;4.006;2023-02-01T09:21:45;102317.03;;;6.87;73.20
29417;BME280;28421;51.030;4.006;2023-02-01T09:24:11;102296.59;;;6.62;72.94
29417;BME280;28421;51.030;4.006;2023-02-01T09:26:37;102320.13;;;6.93;72.97
29417;BME280;28421;51.030;4.006;2023-02-01T09:29:03;102331.38;;;6.86;72.63
29417;BME280;28421;51.030;4.006;2023-02-01T09:31:30;102279.66;;;6.74;72.23
29417;BME280;28421;51.030;4.006;2023-02-01T09:33:56;102297.06;;;6.80;72.07
29417;BME280;28421;51.030;4.006;2023-02-01T09:36:21;102284.13;;;6.86;71.85
29417;BME280;28421;51.030;4.006;2023-02-01T09:38:48;102279.69;;;6.98;71.71
29417;BME280;28421;51.030;4.006;2023-02-01T09:44:00;102305.75;;;7.31;70.25
29417;BME280;28421;51.030;4.006;2023-02-01T09:46:33;102334.59;;;7.39;69.99
29417;BME280;28421;51.030;4.006;2023-02-01T09:49:24;102266.19;;;7.23;69.48
29417;BME280;28421;51.030;4.006;2023-02-01T09:51:52;102324.91;;;7.49;68.82
29417;BME280;28421;51.030;4.006;2023-02-01T09:54:20;102297.91;;;7.52;68.09
29417;BME280;28421;51.030;4.006;2023-02-01T09:57:06;102298.28;;;7.59;68.04
29417;BME280;28421;51.030;4.006;2023-02-01T09:59:46;102300.91;;;7.71;67.81
29417;BME280;28421;51.030;4.006;2023-02-01T10:02:22;102289.31;;;7.60;67.61
29417;BME280;28421;51.030;4.006;2023-02-01T10:04:48;102258.66;;;7.64;67.67
29417;BME280;28421;51.030;4.006;2023-02-01T10:07:23;102351.25;;;8.13;67.13
29417;BME280;28421;51.030;4.006;2023-02-01T10:10:14;102322.38;;;8.16;67.63
29417;BME280;28421;51.030;4.006;2023-02-01T10:18:47;102343.94;;;8.15;66.97
29417;BME280;28421;51.030;4.006;2023-02-01T10:21:36;102354.31;;;8.31;66.17
29417;BME280;28421;51.030;4.006;2023-02-01T10:27:15;102346.50;;;8.16;66.23
29417;BME280;28421;51.030;4.006;2023-02-01T10:29:44;102333.09;;;8.05;66.04
29417;BME280;28421;51.030;4.006;2023-02-01T10:32:16;102357.28;;;8.39;65.75
29417;BME280;28421;51.030;4.006;2023-02-01T10:34:44;102296.31;;;8.07;65.60
29417;BME280;28421;51.030;4.006;2023-02-01T10:37:23;102353.34;;;8.32;65.49
29417;BME280;28421;51.030;4.006;2023-02-01T10:39:49;102339.09;;;8.31;65.66
29417;BME280;28421;51.030;4.006;2023-02-01T10:42:17;102290.63;;;8.34;65.87
29417;BME280;28421;51.030;4.006;2023-02-01T10:44:45;102300.34;;;8.24;65.10
29417;BME280;28421;51.030;4.006;2023-02-01T10:47:13;102282.56;;;8.01;64.76
29417;BME280;28421;51.030;4.006;2023-02-01T10:49:47;102312.44;;;8.30;64.96
29417;BME280;28421;51.030;4.006;2023-02-01T10:52:39;102325.47;;;8.45;64.93
29417;BME280;28421;51.030;4.006;2023-02-01T10:55:30;102342.44;;;8.46;64.36
29417;BME280;28421;51.030;4.006;2023-02-01T10:58:00;102293.91;;;8.27;64.53
29417;BME280;28421;51.030;4.006;2023-02-01T11:00:26;102306.13;;;8.42;64.35
29417;BME280;28421;51.030;4.006;2023-02-01T11:02:53;102301.31;;;8.23;63.97
29417;BME280;28421;51.030;4.006;2023-02-01T11:05:19;102310.59;;;8.53;64.28
29417;BME280;28421;51.030;4.006;2023-02-01T11:07:53;102329.00;;;8.68;64.32
29417;BME280;28421;51.030;4.006;2023-02-01T11:11:01;102267.38;;;8.46;63.81
29417;BME280;28421;51.030;4.006;2023-02-01T11:13:31;102314.47;;;8.82;63.77
29417;BME280;28421;51.030;4.006;2023-02-01T11:15:59;102267.97;;;8.50;63.65
29417;BME280;28421;51.030;4.006;2023-02-01T11:18:29;102264.31;;;8.51;63.41
29417;BME280;28421;51.030;4.006;2023-02-01T11:20:55;102296.47;;;8.62;63.33
29417;BME280;28421;51.030;4.006;2023-02-01T11:23:25;102306.19;;;8.85;62.98
29417;BME280;28421;51.030;4.006;2023-02-01T11:26:02;102305.78;;;9.01;62.68
29417;BME280;28421;51.030;4.006;2023-02-01T11:28:34;102284.53;;;9.09;61.41
29417;BME280;28421;51.030;4.006;2023-02-01T11:31:05;102300.13;;;9.15;61.08
29417;BME280;28421;51.030;4.006;2023-02-01T11:33:36;102296.13;;;9.42;61.07
29417;BME280;28421;51.030;4.006;2023-02-01T11:36:12;102279.63;;;9.46;60.71
29417;BME280;28421;51.030;4.006;2023-02-01T11:38:39;102247.03;;;9.19;59.49
29417;BME280;28421;51.030;4.006;2023-02-01T11:43:58;102310.06;;;9.57;58.82
29417;BME280;28421;51.030;4.006;2023-02-01T11:46:28;102268.75;;;9.48;59.10
29417;BME280;28421;51.030;4.006;2023-02-01T11:48:55;102262.78;;;9.44;58.96
29417;BME280;28421;51.030;4.006;2023-02-01T11:54:14;102284.94;;;9.79;58.15
29417;BME280;28421;51.030;4.006;2023-02-01T11:57:04;102292.00;;;9.80;57.10
29417;BME280;28421;51.030;4.006;2023-02-01T12:02:49;102295.00;;;9.86;56.43
29417;BME280;28421;51.030;4.006;2023-02-01T12:10:51;102285.41;;;9.84;56.61
29417;BME280;28421;51.030;4.006;2023-02-01T12:26:41;102249.13;;;9.99;55.80
29417;BME280;28421;51.030;4.006;2023-02-01T12:29:47;102214.59;;;9.94;56.08
29417;BME280;28421;51.030;4.006;2023-02-01T12:43:49;102207.22;;;9.66;55.64
29417;BME280;28421;51.030;4.006;2023-02-01T12:46:37;102181.06;;;9.89;55.11
29417;BME280;28421;51.030;4.006;2023-02-01T12:51:41;102259.25;;;10.16;54.14
29417;BME280;28421;51.030;4.006;2023-02-01T12:54:18;102253.56;;;10.40;54.28
29417;BME280;28421;51.030;4.006;2023-02-01T12:56:53;102243.72;;;10.60;53.81
29417;BME280;28421;51.030;4.006;2023-02-01T13:02:28;102239.22;;;10.80;53.72
29417;BME280;28421;51.030;4.006;2023-02-01T13:05:19;102224.63;;;10.54;53.26
29417;BME280;28421;51.030;4.006;2023-02-01T13:08:01;102251.09;;;10.58;53.47
29417;BME280;28421;51.030;4.006;2023-02-01T13:10:38;102199.91;;;10.29;53.44
29417;BME280;28421;51.030;4.006;2023-02-01T13:13:29;102237.91;;;10.55;53.96
29417;BME280;28421;51.030;4.006;2023-02-01T13:18:34;102195.47;;;10.18;55.13
29417;BME280;28421;51.030;4.006;2023-02-01T13:21:15;102183.38;;;10.43;54.61
29417;BME280;28421;51.030;4.006;2023-02-01T13:23:45;102206.09;;;10.70;54.36
29417;BME280;28421;51.030;4.006;2023-02-01T13:26:11;102223.78;;;10.82;53.78
29417;BME280;28421;51.030;4.006;2023-02-01T13:28:40;102237.81;;;10.76;54.12
29417;BME280;28421;51.030;4.006;2023-02-01T13:42:50;102258.38;;;10.87;54.56
29417;BME280;28421;51.030;4.006;2023-02-01T13:45:19;102212.50;;;10.29;54.49
29417;BME280;28421;51.030;4.006;2023-02-01T13:47:48;102212.94;;;10.34;54.86
29417;BME280;28421;51.030;4.006;2023-02-01T13:50:23;102258.84;;;10.52;54.14
29417;BME280;28421;51.030;4.006;2023-02-01T13:53:02;102201.31;;;9.93;54.45
29417;BME280;28421;51.030;4.006;2023-02-01T13:55:38;102188.72;;;9.93;55.22
29417;BME280;28421;51.030;4.006;2023-02-01T14:00:37;102224.41;;;10.05;54.43
29417;BME280;28421;51.030;4.006;2023-02-01T14:21:19;102262.09;;;9.94;56.36
29417;BME280;28421;51.030;4.006;2023-02-01T14:26:21;102248.69;;;9.73;56.42
29417;BME280;28421;51.030;4.006;2023-02-01T14:37:35;102244.84;;;9.45;57.59
29417;BME280;28421;51.030;4.006;2023-02-01T15:00:55;102308.09;;;9.38;59.53
29417;BME280;28421;51.030;4.006;2023-02-01T15:06:21;102289.22;;;9.28;59.65
29417;BME280;28421;51.030;4.006;2023-02-01T15:08:48;102251.28;;;9.01;59.77
29417;BME280;28421;51.030;4.006;2023-02-01T15:11:15;102265.84;;;9.19;59.76
29417;BME280;28421;51.030;4.006;2023-02-01T15:13:48;102294.13;;;9.23;59.94
29417;BME280;28421;51.030;4.006;2023-02-01T15:16:16;102303.41;;;9.19;60.43
29417;BME280;28421;51.030;4.006;2023-02-01T15:18:42;102271.50;;;9.05;60.05
29417;BME280;28421;51.030;4.006;2023-02-01T15:21:19;102262.44;;;9.17;59.75
29417;BME280;28421;51.030;4.006;2023-02-01T15:23:46;102315.88;;;9.41;59.89
29417;BME280;28421;51.030;4.006;2023-02-01T15:26:31;102298.31;;;9.37;60.22
29417;BME280;28421;51.030;4.006;2023-02-01T15:28:57;102287.53;;;9.16;60.57
29417;BME280;28421;51.030;4.006;2023-02-01T15:31:38;102327.59;;;9.40;60.08
29417;BME280;28421;51.030;4.006;2023-02-01T15:34:04;102310.06;;;9.57;59.65
29417;BME280;28421;51.030;4.006;2023-02-01T15:36:30;102309.38;;;9.55;59.92
29417;BME280;28421;51.030;4.006;2023-02-01T15:39:21;102299.41;;;9.45;59.80
29417;BME280;28421;51.030;4.006;2023-02-01T15:41:59;102267.81;;;9.17;60.06
29417;BME280;28421;51.030;4.006;2023-02-01T15:44:40;102305.94;;;9.20;60.49
29417;BME280;28421;51.030;4.006;2023-02-01T15:47:15;102257.97;;;9.06;60.56
29417;BME280;28421;51.030;4.006;2023-02-01T15:49:43;102314.38;;;9.48;60.53
29417;BME280;28421;51.030;4.006;2023-02-01T15:52:26;102308.34;;;9.35;60.83
29417;BME280;28421;51.030;4.006;2023-02-01T15:54:58;102253.41;;;9.18;60.59
29417;BME280;28421;51.030;4.006;2023-02-01T15:57:31;102279.66;;;9.35;60.56
29417;BME280;28421;51.030;4.006;2023-02-01T16:00:00;102298.00;;;9.30;61.01
29417;BME280;28421;51.030;4.006;2023-02-01T16:02:51;102249.66;;;9.09;61.00
29417;BME280;28421;51.030;4.006;2023-02-01T16:10:45;102298.09;;;9.29;61.10
29417;BME280;28421;51.030;4.006;2023-02-01T16:13:11;102277.25;;;9.00;61.77
29417;BME280;28421;51.030;4.006;2023-02-01T16:15:37;102265.94;;;8.85;62.35
29417;BME280;28421;51.030;4.006;2023-02-01T16:18:04;102271.78;;;8.90;62.15
29417;BME280;28421;51.030;4.006;2023-02-01T16:20:29;102289.56;;;8.91;62.39
29417;BME280;28421;51.030;4.006;2023-02-01T16:22:55;102317.84;;;9.07;62.61
29417;BME280;28421;51.030;4.006;2023-02-01T16:25:21;102304.34;;;9.29;62.11
29417;BME280;28421;51.030;4.006;2023-02-01T16:27:46;102266.00;;;8.63;62.85
29417;BME280;28421;51.030;4.006;2023-02-01T16:30:12;102319.19;;;9.12;62.92
29417;BME280;28421;51.030;4.006;2023-02-01T16:32:37;102302.88;;;8.93;63.17
29417;BME280;28421;51.030;4.006;2023-02-01T16:35:22;102317.56;;;9.21;63.00
29417;BME280;28421;51.030;4.006;2023-02-01T16:37:48;102298.97;;;8.97;63.57
29417;BME280;28421;51.030;4.006;2023-02-01T16:40:15;102331.63;;;9.02;63.42
29417;BME280;28421;51.030;4.006;2023-02-01T16:42:42;102271.84;;;8.68;63.91
29417;BME280;28421;51.030;4.006;2023-02-01T16:45:08;102324.66;;;9.00;64.02
29417;BME280;28421;51.030;4.006;2023-02-01T16:47:36;102256.16;;;8.52;64.32
29417;BME280;28421;51.030;4.006;2023-02-01T16:50:03;102280.22;;;8.75;64.47
29417;BME280;28421;51.030;4.006;2023-02-01T16:52:28;102268.41;;;8.77;63.96
29417;BME280;28421;51.030;4.006;2023-02-01T16:54:54;102334.84;;;8.85;64.87
29417;BME280;28421;51.030;4.006;2023-02-01T16:57:20;102354.22;;;8.88;65.15
29417;BME280;28421;51.030;4.006;2023-02-01T16:59:49;102348.09;;;8.98;65.19
29417;BME280;28421;51.030;4.006;2023-02-01T17:02:19;102329.22;;;8.88;65.06
29417;BME280;28421;51.030;4.006;2023-02-01T17:04:47;102338.91;;;9.11;65.31
29417;BME280;28421;51.030;4.006;2023-02-01T17:07:15;102354.84;;;8.92;65.50
29417;BME280;28421;51.030;4.006;2023-02-01T17:09:45;102349.31;;;8.93;65.92
29417;BME280;28421;51.030;4.006;2023-02-01T17:12:29;102357.69;;;9.11;65.52
29417;BME280;28421;51.030;4.006;2023-02-01T17:14:55;102346.41;;;8.74;65.78
29417;BME280;28421;51.030;4.006;2023-02-01T17:17:21;102304.41;;;8.63;66.02
29417;BME280;28421;51.030;4.006;2023-02-01T17:19:50;102291.94;;;8.62;65.84
29417;BME280;28421;51.030;4.006;2023-02-01T17:22:20;102273.19;;;8.62;65.21
29417;BME280;28421;51.030;4.006;2023-02-01T17:24:45;102353.38;;;9.31;65.27
29417;BME280;28421;51.030;4.006;2023-02-01T17:27:10;102353.63;;;9.28;65.18
29417;BME280;28421;51.030;4.006;2023-02-01T17:29:36;102343.81;;;9.06;65.32
29417;BME280;28421;51.030;4.006;2023-02-01T17:32:02;102308.84;;;8.96;65.37
29417;BME280;28421;51.030;4.006;2023-02-01T17:34:28;102364.91;;;9.11;65.61
29417;BME280;28421;51.030;4.006;2023-02-01T17:36:53;102365.00;;;9.20;65.98
29417;BME280;28421;51.030;4.006;2023-02-01T17:39:19;102358.09;;;8.95;66.36
29417;BME280;28421;51.030;4.006;2023-02-01T17:42:04;102367.38;;;8.91;66.37
29417;BME280;28421;51.030;4.006;2023-02-01T17:44:30;102381.38;;;9.06;66.50
29417;BME280;28421;51.030;4.006;2023-02-01T17:46:56;102339.22;;;8.75;66.63
29417;BME280;28421;51.030;4.006;2023-02-01T17:49:24;102373.94;;;8.87;66.63
29417;BME280;28421;51.030;4.006;2023-02-01T17:51:49;102390.66;;;9.13;66.34
29417;BME280;28421;51.030;4.006;2023-02-01T17:54:15;102368.00;;;8.73;66.74
29417;BME280;28421;51.030;4.006;2023-02-01T17:56:42;102343.75;;;8.74;67.17
29417;BME280;28421;51.030;4.006;2023-02-01T17:59:08;102392.72;;;8.99;67.26
29417;BME280;28421;51.030;4.006;2023-02-01T18:01:34;102331.22;;;8.63;67.14
29417;BME280;28421;51.030;4.006;2023-02-01T18:03:59;102352.16;;;8.81;67.17
29417;BME280;28421;51.030;4.006;2023-02-01T18:06:26;102380.53;;;8.94;67.12
29417;BME280;28421;51.030;4.006;2023-02-01T18:08:52;102344.72;;;8.73;67.29
29417;BME280;28421;51.030;4.006;2023-02-01T18:11:20;102389.19;;;8.87;67.54
29417;BME280;28421;51.030;4.006;2023-02-01T18:13:46;102381.66;;;8.92;67.51
29417;BME280;28421;51.030;4.006;2023-02-01T18:16:26;102376.06;;;8.84;67.80
29417;BME280;28421;51.030;4.006;2023-02-01T18:18:52;102348.00;;;8.65;67.82
29417;BME280;28421;51.030;4.006;2023-02-01T18:21:30;102363.59;;;8.83;67.68
29417;BME280;28421;51.030;4.006;2023-02-01T18:24:09;102389.94;;;8.89;67.91
29417;BME280;28421;51.030;4.006;2023-02-01T18:27:08;102315.97;;;8.53;67.89
29417;BME280;28421;51.030;4.006;2023-02-01T18:29:54;102387.03;;;8.81;68.51
29417;BME280;28421;51.030;4.006;2023-02-01T18:32:21;102384.34;;;8.69;68.73
29417;BME280;28421;51.030;4.006;2023-02-01T18:35:33;102378.38;;;8.88;68.32
29417;BME280;28421;51.030;4.006;2023-02-01T18:38:11;102287.78;;;8.25;68.74
29417;BME280;28421;51.030;4.006;2023-02-01T18:40:53;102380.56;;;8.72;69.00
29417;BME280;28421;51.030;4.006;2023-02-01T18:43:31;102326.41;;;8.33;69.05
29417;BME280;28421;51.030;4.006;2023-02-01T18:45:57;102380.06;;;8.56;69.56
29417;BME280;28421;51.030;4.006;2023-02-01T18:48:43;102368.47;;;8.66;69.13
29417;BME280;28421;51.030;4.006;2023-02-01T18:59:57;102369.69;;;8.62;69.19
29417;BME280;28421;51.030;4.006;2023-02-01T19:06:09;102334.34;;;8.35;69.76
29417;BME280;28421;51.030;4.006;2023-02-01T19:12:38;102321.53;;;8.27;69.95
29417;BME280;28421;51.030;4.006;2023-02-01T19:15:05;102375.56;;;8.56;69.75
29417;BME280;28421;51.030;4.006;2023-02-01T19:18:04;102369.47;;;8.65;69.72
29417;BME280;28421;51.030;4.006;2023-02-01T19:20:30;102335.09;;;8.37;69.64
29417;BME280;28421;51.030;4.006;2023-02-01T19:22:56;102379.72;;;8.71;69.52
29417;BME280;28421;51.030;4.006;2023-02-01T19:25:26;102296.69;;;8.14;69.65
29417;BME280;28421;51.030;4.006;2023-02-01T19:27:54;102344.84;;;8.71;69.03
29417;BME280;28421;51.030;4.006;2023-02-01T19:30:21;102384.81;;;8.97;68.67
29417;BME280;28421;51.030;4.006;2023-02-01T19:44:19;102311.81;;;8.37;68.89
29417;BME280;28421;51.030;4.006;2023-02-01T19:54:32;102331.09;;;8.42;69.49
29417;BME280;28421;51.030;4.006;2023-02-01T19:56:57;102312.94;;;8.46;69.58
29417;BME280;28421;51.030;4.006;2023-02-01T20:00:04;102327.31;;;8.45;68.87
29417;BME280;28421;51.030;4.006;2023-02-01T20:02:33;102362.88;;;8.92;68.84
29417;BME280;28421;51.030;4.006;2023-02-01T20:05:36;102288.44;;;8.51;68.78
29417;BME280;28421;51.030;4.006;2023-02-01T20:15:58;102306.47;;;8.49;68.79
29417;BME280;28421;51.030;4.006;2023-02-01T20:18:25;102329.72;;;8.70;68.34
29417;BME280;28421;51.030;4.006;2023-02-01T20:24:28;102340.22;;;8.62;69.37
29417;BME280;28421;51.030;4.006;2023-02-01T20:27:21;102393.22;;;8.81;69.61
29417;BME280;28421;51.030;4.006;2023-02-01T20:30:18;102354.09;;;8.34;70.50
29417;BME280;28421;51.030;4.006;2023-02-01T20:41:31;102362.41;;;8.42;70.52
29417;BME280;28421;51.030;4.006;2023-02-01T20:43:57;102394.94;;;8.60;70.60
29417;BME280;28421;51.030;4.006;2023-02-01T20:50:42;102387.50;;;8.52;71.08
29417;BME280;28421;51.030;4.006;2023-02-01T20:54:11;102393.00;;;8.51;70.94
29417;BME280;28421;51.030;4.006;2023-02-01T20:57:51;102323.09;;;8.07;70.91
29417;BME280;28421;51.030;4.006;2023-02-01T21:01:35;102305.69;;;8.02;70.97
29417;BME280;28421;51.030;4.006;2023-02-01T21:05:08;102325.44;;;8.01;70.84
29417;BME280;28421;51.030;4.006;2023-02-01T21:14:48;102324.09;;;8.17;70.47
29417;BME280;28421;51.030;4.006;2023-02-01T21:17:20;102398.72;;;8.68;70.64
29417;BME280;28421;51.030;4.006;2023-02-01T21:19:45;102329.22;;;8.09;70.94
29417;BME280;28421;51.030;4.006;2023-02-01T21:22:13;102362.34;;;8.31;70.85
29417;BME280;28421;51.030;4.006;2023-02-01T21:25:10;102388.84;;;8.58;70.87
29417;BME280;28421;51.030;4.006;2023-02-01T21:32:09;102369.34;;;8.44;70.32
29417;BME280;28421;51.030;4.006;2023-02-01T21:34:35;102362.97;;;8.34;70.77
29417;BME280;28421;51.030;4.006;2023-02-01T21:37:00;102396.88;;;8.46;70.92
29417;BME280;28421;51.030;4.006;2023-02-01T21:47:01;102423.94;;;8.55;70.95
29417;BME280;28421;51.030;4.006;2023-02-01T21:49:26;102395.53;;;8.41;70.67
29417;BME280;28421;51.030;4.006;2023-02-01T21:51:53;102401.28;;;8.48;71.00
29417;BME280;28421;51.030;4.006;2023-02-01T21:54:19;102367.34;;;8.35;70.90
29417;BME280;28421;51.030;4.006;2023-02-01T21:56:44;102414.06;;;8.55;70.94